createdAt,value
2022-08-03T00:12:47.475Z,87.17
2022-08-03T00:27:43.602Z,86.7
2022-08-03T00:42:39.476Z,88.97
2022-08-03T00:57:35.540Z,88.67
2022-08-03T01:12:32.072Z,88.61
2022-08-03T01:27:28.245Z,90.47
2022-08-03T01:42:23.734Z,90.45
2022-08-03T01:57:19.987Z,92.26
2022-08-03T02:12:16.316Z,92.51
2022-08-03T02:27:12.486Z,95.95
2022-08-03T02:42:09.268Z,94.23
2022-08-03T02:57:05.337Z,93.99
2022-08-03T03:12:01.243Z,97.11
2022-08-03T03:26:57.443Z,96.49
2022-08-03T03:41:53.765Z,98.2
2022-08-03T03:56:49.799Z,99.26
2022-08-03T04:11:45.972Z,98.54
2022-08-03T04:26:41.876Z,97.09
2022-08-03T04:42:02.140Z,99.44
2022-08-03T04:56:34.478Z,100
2022-08-03T05:11:30.643Z,96.78
2022-08-03T05:26:27.238Z,94.7
2022-08-03T05:41:36.694Z,88.15
2022-08-03T05:56:19.928Z,81.87
2022-08-03T06:11:16.822Z,75.78
2022-08-03T06:26:13.340Z,71.72
2022-08-03T06:41:09.910Z,68.63
2022-08-03T06:56:06.766Z,66.45
2022-08-03T07:11:03.244Z,62.66
2022-08-03T07:25:59.532Z,61.01
2022-08-03T07:40:56.355Z,58.18
2022-08-03T07:55:52.908Z,50.15
2022-08-03T08:10:56.613Z,45
2022-08-03T08:25:46.027Z,42.69
2022-08-03T08:40:42.750Z,41.42
2022-08-03T08:55:59.872Z,39.09
2022-08-03T09:10:37.139Z,33.07
2022-08-03T09:25:34.203Z,33.23
2022-08-03T09:40:31.462Z,34.16
2022-08-03T09:56:31.087Z,34.4
2022-08-03T10:10:28.766Z,32.89
2022-08-03T10:25:22.393Z,32.09
2022-08-03T10:40:33.349Z,31.65
2022-08-03T10:55:16.571Z,31.27
2022-08-03T11:10:13.142Z,30.96
2022-08-03T11:25:09.371Z,29.75
2022-08-03T11:40:06.375Z,28.68
2022-08-03T11:55:03.449Z,29.15
2022-08-03T12:10:00.280Z,28.42
2022-08-03T12:24:56.675Z,26.39
2022-08-03T12:40:00.770Z,26.39
2022-08-03T12:54:49.655Z,27.15
2022-08-03T13:09:46.410Z,27.93
2022-08-03T13:24:43.001Z,28.48
2022-08-03T13:39:48.442Z,28.17
2022-08-03T13:54:35.524Z,29.06
2022-08-03T14:09:31.201Z,28.1
2022-08-03T14:24:26.704Z,29.3
2022-08-03T14:39:22.354Z,29.29
2022-08-03T14:54:18.104Z,30.91
2022-08-03T15:09:21.042Z,30.17
2022-08-03T15:24:09.266Z,29.73
2022-08-03T15:39:05.729Z,29.93
2022-08-03T15:54:02.278Z,29.89
2022-08-03T16:08:58.380Z,30.13
2022-08-03T16:23:54.765Z,31.82
2022-08-03T16:38:50.563Z,32.12
2022-08-03T16:54:02.625Z,32.23
2022-08-03T17:08:42.402Z,33.55
2022-08-03T17:23:38.517Z,34.47
2022-08-03T17:38:34.702Z,36.44
2022-08-03T17:53:30.494Z,37.65
2022-08-03T18:08:26.955Z,38.91
2022-08-03T18:23:25.562Z,42.31
2022-08-03T18:38:19.368Z,45.66
2022-08-03T18:53:15.854Z,51.39
2022-08-03T19:08:13.568Z,53.5
2022-08-03T19:23:07.209Z,55.1
2022-08-03T19:38:03.463Z,59.49
2022-08-03T19:52:59.367Z,61.64
2022-08-03T20:07:55.238Z,63.82
2022-08-03T20:22:51.309Z,66.65
2022-08-03T20:37:47.155Z,66.5
2022-08-03T20:52:43.924Z,67.1
2022-08-03T21:07:45.790Z,67.7
2022-08-03T21:22:34.098Z,68.68
2022-08-03T21:37:30.282Z,70.59
2022-08-03T21:52:26.733Z,72.29
2022-08-03T22:07:23.063Z,74.28
2022-08-03T22:22:18.665Z,74.62
2022-08-03T22:37:14.772Z,76.21
2022-08-03T22:52:11.001Z,76.4
2022-08-03T23:07:07.190Z,76.27
2022-08-03T23:22:04.144Z,79.47
2022-08-03T23:36:58.882Z,79.47
2022-08-03T23:51:54.976Z,81.83
